ES-0122 weather

Huevar 2
Huevar, AndalucĂ­a, Spain

Public forecast

Using degrees Celsius for public forecast. Weather courtesy of forecast.io.

METAR (pilot weather report)

Closest report is Sevilla Airport, 17.1 nm (31.7 km) E. Retrieved 2018/10/16 16:30 UTC (25 minutes ago):

LEZL 161630Z 34004KT 260V050 9999 FEW035 23/13 Q1014 NOSIG

TAF (pilot weather forecast)

Closest forecast is Sevilla Airport, 17.1 nm (31.7 km) E. Retrieved 2018/10/16 15:00 UTC (2 hours ago):

TAF LEZL 161400Z 1615/1715 02005KT 9999 FEW035 TX26/1714Z TN12/1706Z